Map

Track Data

SID SEASON NUMBER BASIN SUBBASIN NAME ISO_TIME NATURE LAT LON WMO_WIND WMO_PRES WMO_AGENCY TRACK_TYPE DIST2LAND LANDFALL IFLAG USA_AGENCY USA_ATCF_ID USA_LAT USA_LON USA_RECORD USA_STATUS USA_WIND USA_PRES USA_SSHS USA_R34_NE USA_R34_SE USA_R34_SW USA_R34_NW USA_R50_NE USA_R50_SE USA_R50_SW USA_R50_NW USA_R64_NE USA_R64_SE USA_R64_SW USA_R64_NW USA_POCI USA_ROCI USA_RMW USA_EYE TOKYO_LAT TOKYO_LON TOKYO_GRADE TOKYO_WIND TOKYO_PRES TOKYO_R50_DIR TOKYO_R50_LONG TOKYO_R50_SHORT TOKYO_R30_DIR TOKYO_R30_LONG TOKYO_R30_SHORT TOKYO_LAND CMA_LAT CMA_LON CMA_CAT CMA_WIND CMA_PRES HKO_LAT HKO_LON HKO_CAT HKO_WIND HKO_PRES NEWDELHI_LAT NEWDELHI_LON NEWDELHI_GRADE NEWDELHI_WIND NEWDELHI_PRES NEWDELHI_CI NEWDELHI_DP NEWDELHI_POCI REUNION_LAT REUNION_LON REUNION_TYPE REUNION_WIND REUNION_PRES REUNION_TNUM REUNION_CI REUNION_RMW REUNION_R34_NE REUNION_R34_SE REUNION_R34_SW REUNION_R34_NW REUNION_R50_NE REUNION_R50_SE REUNION_R50_SW REUNION_R50_NW REUNION_R64_NE REUNION_R64_SE REUNION_R64_SW REUNION_R64_NW BOM_LAT BOM_LON BOM_TYPE BOM_WIND BOM_PRES BOM_TNUM BOM_CI BOM_RMW BOM_R34_NE BOM_R34_SE BOM_R34_SW BOM_R34_NW BOM_R50_NE BOM_R50_SE BOM_R50_SW BOM_R50_NW BOM_R64_NE BOM_R64_SE BOM_R64_SW BOM_R64_NW BOM_ROCI BOM_POCI BOM_EYE BOM_POS_METHOD BOM_PRES_METHOD NADI_LAT NADI_LON NADI_CAT NADI_WIND NADI_PRES WELLINGTON_LAT WELLINGTON_LON WELLINGTON_WIND WELLINGTON_PRES DS824_LAT DS824_LON DS824_STAGE DS824_WIND DS824_PRES TD9636_LAT TD9636_LON TD9636_STAGE TD9636_WIND TD9636_PRES TD9635_LAT TD9635_LON TD9635_WIND TD9635_PRES TD9635_ROCI NEUMANN_LAT NEUMANN_LON NEUMANN_CLASS NEUMANN_WIND NEUMANN_PRES MLC_LAT MLC_LON MLC_CLASS MLC_WIND MLC_PRES USA_GUST BOM_GUST BOM_GUST_PER REUNION_GUST REUNION_GUST_PER USA_SEAHGT USA_SEARAD_NE USA_SEARAD_SE USA_SEARAD_SW USA_SEARAD_NW STORM_SPEED STORM_DIR
1962299N10094 1962 98 NI BB NOT_NAMED 1962-10-26 06:00:00 TS 10.4000 94.2000 main 470 470 O________O____ jtwc_io IO101962 10.4000 94.2000 -1 10.4000 94.2000 TC 4 285
1962299N10094 1962 98 NI BB NOT_NAMED 1962-10-26 09:00:00 TS 10.4500 94.0150 main 492 492 P________P____ IO101962 10.4500 94.0150 -1 10.4500 94.0150 TC 4 284
1962299N10094 1962 98 NI BB NOT_NAMED 1962-10-26 12:00:00 TS 10.5000 93.8000 main 514 514 O________O____ jtwc_io IO101962 10.5000 93.8000 -1 10.5000 93.8000 TC 25 5 281
1962299N10094 1962 98 NI BB NOT_NAMED 1962-10-26 15:00:00 TS 10.5444 93.5267 main 547 546 P________PO___ IO101962 10.5500 93.5300 -1 10.5500 93.5300 TC 25 10.5000 93.5000 1 6 279
1962299N10094 1962 98 NI BB NOT_NAMED 1962-10-26 18:00:00 TS 10.5943 93.1978 main 579 579 O________OP___ jtwc_io IO101962 10.6000 93.2000 -1 10.6000 93.2000 TC 25 10.5715 93.1888 1 7 278
1962299N10094 1962 98 NI BB NOT_NAMED 1962-10-26 21:00:00 TS 10.6347 92.8441 main 607 599 P________PP___ IO101962 10.6274 92.8448 -1 10.6274 92.8448 TC 25 10.6543 92.8421 1 8 279
1962299N10094 1962 98 NI BB NOT_NAMED 1962-10-27 00:00:00 TS 10.7200 92.4081 main 610 604 O________OP___ jtwc_io IO101962 10.7000 92.4000 -1 10.7000 92.4000 TC 25 10.7601 92.4244 1 10 285
1962299N10094 1962 98 NI BB NOT_NAMED 1962-10-27 03:00:00 TS 10.8849 91.8683 main 611 611 P________PO___ IO101962 10.8774 91.8525 -1 10.8774 91.8525 TC 25 10.9000 91.9000 1 12 288
1962299N10094 1962 98 NI BB NOT_NAMED 1962-10-27 06:00:00 TS 11.0939 91.2161 main 629 629 O________OP___ jtwc_io IO101962 11.1000 91.2000 -1 11.1000 91.2000 TC 25 11.0817 91.2483 1 14 286
1962299N10094 1962 98 NI BB NOT_NAMED 1962-10-27 09:00:00 TS 11.2896 90.4750 main 657 657 P________PP___ IO101962 11.2851 90.4574 -1 11.2851 90.4574 TC 25 11.2985 90.5102 1 15 286
1962299N10094 1962 98 NI BB NOT_NAMED 1962-10-27 12:00:00 TS 11.5137 89.7140 main 699 699 O________OP___ jtwc_io IO101962 11.5000 89.7000 -1 11.5000 89.7000 TC 25 11.5410 89.7419 1 15 290
1962299N10094 1962 98 NI BB NOT_NAMED 1962-10-27 15:00:00 TS 11.7948 89.0233 main 732 732 P________PO___ IO101962 11.7922 89.0350 -1 11.7922 89.0350 TC 25 11.8000 89.0000 1 14 293
1962299N10094 1962 98 NI BB NOT_NAMED 1962-10-27 18:00:00 TS 12.0827 88.3745 main 763 754 O________OP___ jtwc_io IO101962 12.1000 88.4000 -1 12.1000 88.4000 TC 25 12.0482 88.3234 1 14 293
1962299N10094 1962 98 NI BB NOT_NAMED 1962-10-27 21:00:00 TS 12.3374 87.7141 main 754 683 P________PP___ IO101962 12.3500 87.7274 -1 12.3500 87.7274 TC 25 12.3123 87.6874 1 13 293
1962299N10094 1962 98 NI BB NOT_NAMED 1962-10-28 00:00:00 TS 12.5984 87.1026 main 683 620 O________OP___ jtwc_io IO101962 12.6000 87.1000 -1 12.6000 87.1000 TC 25 12.5952 87.1077 1 13 296
1962299N10094 1962 98 NI BB NOT_NAMED 1962-10-28 03:00:00 TS 12.8899 86.5650 main 620 558 P________PO___ IO101962 12.8849 86.5474 -1 12.8849 86.5474 TC 25 12.9000 86.6000 1 11 302
1962299N10094 1962 98 NI BB NOT_NAMED 1962-10-28 06:00:00 TS 13.2066 86.1111 main 558 511 O________OP___ jtwc_io IO101962 13.2000 86.1000 -1 13.2000 86.1000 TC 25 13.2199 86.1334 1 10 310
1962299N10094 1962 98 NI BB NOT_NAMED 1962-10-28 09:00:00 TS 13.5439 85.7557 main 511 457 P________PP___ IO101962 13.5349 85.7623 -1 13.5349 85.7623 TC 25 13.5620 85.7426 1 9 319
1962299N10094 1962 98 NI BB NOT_NAMED 1962-10-28 12:00:00 TS 13.9077 85.4768 main 457 403 O________OP___ jtwc_io IO101962 13.9000 85.5000 -1 13.9000 85.5000 TC 25 13.9232 85.4304 1 9 325
1962299N10094 1962 98 NI BB NOT_NAMED 1962-10-28 15:00:00 TS 14.2950 85.2133 main 403 358 P________PO___ IO101962 14.2925 85.2200 -1 14.2925 85.2200 TC 30 14.3000 85.2000 1 9 329
1962299N10094 1962 98 NI BB NOT_NAMED 1962-10-28 18:00:00 TS 14.6856 84.9938 main 358 315 O________OP___ jtwc_io IO101962 14.7000 85.0000 -1 14.7000 85.0000 TC 35 14.6568 84.9814 1 9 335
1962299N10094 1962 98 NI BB NOT_NAMED 1962-10-28 21:00:00 TS 15.0723 84.8429 main 315 290 P________PP___ IO101962 15.0925 84.8401 -1 15.0925 84.8401 TC 35 15.0319 84.8485 1 8 347
1962299N10094 1962 98 NI BB NOT_NAMED 1962-10-29 00:00:00 TS 15.4804 84.8054 main 290 262 O________OP___ jtwc_io IO101962 15.5000 84.8000 -1 15.5000 84.8000 TC 35 15.4411 84.8163 1 8 3
1962299N10094 1962 98 NI BB NOT_NAMED 1962-10-29 03:00:00 TS 15.9133 84.8884 main 262 237 P________PO___ IO101962 15.9199 84.8827 -1 15.9199 84.8827 TC 35 15.9000 84.9000 3 10 17
1962299N10094 1962 98 NI BB NOT_NAMED 1962-10-29 06:00:00 TS 16.4149 85.0923 main 237 200 O________OP___ jtwc_io IO101962 16.4000 85.1000 -1 16.4000 85.1000 TC 35 16.4448 85.0769 3 12 24
1962299N10094 1962 98 NI BB NOT_NAMED 1962-10-29 09:00:00 TS 17.0016 85.3981 main 200 184 P________PP___ IO101962 16.9850 85.4124 -1 16.9850 85.4124 TC 35 17.0347 85.3694 3 14 29
1962299N10094 1962 98 NI BB NOT_NAMED 1962-10-29 12:00:00 TS 17.6108 85.7841 main 184 172 O________OP___ jtwc_io IO101962 17.6000 85.8000 -1 17.6000 85.8000 TC 35 17.6323 85.7523 3 14 32
1962299N10094 1962 98 NI BB NOT_NAMED 1962-10-29 15:00:00 TS 18.1865 86.1802 main 177 144 P________PO___ IO101962 18.1798 86.1702 -1 18.1798 86.1702 TC 35 18.2000 86.2000 3 13 36
1962299N10094 1962 98 NI BB NOT_NAMED 1962-10-29 18:00:00 TS 18.6852 86.5953 main 144 118 O________OP___ jtwc_io IO101962 18.7000 86.6000 -1 18.7000 86.6000 TC 35 18.6556 86.5858 3 12 43
1962299N10094 1962 98 NI BB NOT_NAMED 1962-10-29 21:00:00 TS 19.0937 87.0783 main 124 122 P________PP___ IO101962 19.0997 87.0983 -1 19.0997 87.0983 TC 50 19.0817 87.0384 3 13 51
1962299N10094 1962 98 NI BB NOT_NAMED 1962-10-30 00:00:00 TS 19.5057 87.6655 main 137 130 O________OP___ jtwc_io IO101962 19.5000 87.7000 -1 19.5000 87.7000 TC 65 19.5171 87.5965 3 15 52
1962299N10094 1962 98 NI BB NOT_NAMED 1962-10-30 03:00:00 TS 20.0078 88.3407 main 156 112 P________PO___ IO101962 20.0116 88.3610 -1 20.0116 88.3610 TC 50 20.0000 88.3000 4 18 53
1962299N10094 1962 98 NI BB NOT_NAMED 1962-10-30 06:00:00 TS 20.6079 89.2222 main 112 67 O________OP___ jtwc_io IO101962 20.6000 89.2000 -1 20.6000 89.2000 TC 35 20.6237 89.2666 4 23 56
1962299N10094 1962 98 NI BB NOT_NAMED 1962-10-30 09:00:00 TS 21.2629 90.3410 main 56 51 P________PP___ IO101962 21.2510 90.3267 -1 21.2510 90.3267 TC 35 21.2866 90.3696 4 25 58
1962299N10094 1962 98 NI BB NOT_NAMED 1962-10-30 12:00:00 TS 21.9101 91.4963 main 41 0 O________OP___ jtwc_io IO101962 21.9000 91.5000 -1 21.9000 91.5000 TC 35 21.9303 91.4888 4 23 58
1962299N10094 1962 98 NI BB NOT_NAMED 1962-10-30 15:00:00 TS 22.4963 92.4886 main 0 0 P________PO___ IO101962 22.4944 92.4829 -1 22.4944 92.4829 TC 30 22.5000 92.5000 2 20 57
1962299N10094 1962 98 NI BB NOT_NAMED 1962-10-30 18:00:00 TS 22.9831 93.3029 main 0 0 O________OP___ jtwc_io IO101962 23.0000 93.3000 -1 23.0000 93.3000 TC 25 22.9578 93.3071 2 16 57
1962299N10094 1962 98 NI BB NOT_NAMED 1962-10-30 21:00:00 TS 23.3585 93.9428 main 0 0 P________PP___ IO101962 23.3853 93.9473 -1 23.3853 93.9473 TC 25 23.3228 93.9368 2 13 58
1962299N10094 1962 98 NI BB NOT_NAMED 1962-10-31 00:00:00 TS 23.6634 94.4739 main 0 0 O________OP___ jtwc_io IO101962 23.7000 94.5000 -1 23.7000 94.5000 TC 25 23.6267 94.4478 2 10 58
1962299N10094 1962 98 NI BB NOT_NAMED 1962-10-31 03:00:00 NR 23.9000 94.9000 main 0 __________O___ IO101962 -1 TC 23.9000 94.9000 1 9 59

About IBTrACS Database

This database is a web-friendly format of International Best Track Archive for Climate Stewardship (IBTrACS), a global best track data archive curated by NOAA dating back to 1842.

Updated: 2021-11-26